Time;durP1;ratioP1;P1;durP2;ratioP2;P2;SDS_P1;SDS_P2;PMS_P1;PMS_P2;Temp;Humidity;BMP_temperature;BMP_pressure;BME280_temperature;BME280_humidity;BME280_pressure;Samples;Min_cycle;Max_cycle;Signal;HPM_P1;HPM_P2
2021/12/17 00:00:58;;;;;;;;;;;;;;;;;;4984499;28;20041;-84
2021/12/17 02:55:21;;;;;;;40.33;15.95;;;;;;;;;;5013264;28;20100;-83
2021/12/17 02:57:49;;;;;;;46.40;17.45;;;;;;;;;;5000575;28;20108;-83
2021/12/17 03:00:35;;;;;;;35.47;15.02;;;;;;;;;;4990744;28;20507;-84
2021/12/17 03:03:02;;;;;;;35.78;14.90;;;;;;;;;;5004986;28;20049;-84
2021/12/17 03:05:28;;;;;;;38.90;15.90;;;;;;;;;;5010712;28;20084;-84
2021/12/17 03:07:55;;;;;;;40.78;16.67;;;;;;;;;;5003830;28;20080;-83
2021/12/17 03:10:21;;;;;;;34.67;16.17;;;;;;;;;;5001237;28;20126;-83
2021/12/17 03:12:51;;;;;;;57.65;18.08;;;;;;;;;;5002538;28;20484;-84
2021/12/17 03:23:40;;;;;;;30.65;14.07;;;;;;;;;;5012436;28;20046;-84
2021/12/17 03:26:06;;;;;;;27.70;13.13;;;;;;;;;;4993659;28;20052;-83
2021/12/17 03:28:33;;;;;;;37.78;14.55;;;;;;;;;;4980486;28;20046;-84
2021/12/17 03:30:59;;;;;;;33.42;14.02;;;;;;;;;;4978110;28;20057;-84
2021/12/17 03:33:25;;;;;;;32.03;13.90;;;;;;;;;;4993880;28;20051;-84
2021/12/17 03:35:51;;;;;;;38.72;15.88;;;;;;;;;;4993848;28;20061;-84
2021/12/17 03:38:17;;;;;;;30.60;13.93;;;;;;;;;;4991293;28;20042;-84
2021/12/17 03:40:45;;;;;;;36.35;14.82;;;;;;;;;;4968254;28;20501;-84
2021/12/17 03:43:13;;;;;;;54.40;16.60;;;;;;;;;;4993250;28;20038;-84
2021/12/17 03:45:39;;;;;;;38.33;16.20;;;;;;;;;;4994490;28;20061;-84
2021/12/17 03:48:05;;;;;;;28.85;14.40;;;;;;;;;;4998316;28;20656;-84
2021/12/17 03:50:36;;;;;;;37.42;14.68;;;;;;;;;;4961351;28;20049;-84
2021/12/17 03:53:03;;;;;;;26.48;11.98;;;;;;;;;;4996353;28;20041;-84
2021/12/17 03:55:29;;;;;;;27.60;13.00;;;;;;;;;;4988595;28;20096;-84
2021/12/17 03:57:58;;;;;;;29.58;15.30;;;;;;;;;;4981208;28;20072;-84
2021/12/17 04:00:25;;;;;;;26.05;13.57;;;;;;;;;;4992925;28;20330;-84
2021/12/17 04:02:56;;;;;;;32.67;14.23;;;;;;;;;;4989517;28;20131;-83
2021/12/17 04:05:23;;;;;;;30.85;14.48;;;;;;;;;;5030405;28;20064;-84
2021/12/17 04:07:49;;;;;;;27.65;13.27;;;;;;;;;;5034146;28;20034;-84
2021/12/17 04:10:17;;;;;;;34.00;15.73;;;;;;;;;;5028827;28;20492;-84
2021/12/17 04:15:13;;;;;;;31.98;14.07;;;;;;;;;;5029076;28;20044;-83
2021/12/17 04:17:46;;;;;;;70.43;17.40;;;;;;;;;;5013349;28;20053;-84
2021/12/17 04:20:13;;;;;;;29.77;13.55;;;;;;;;;;4994916;28;20044;-84
2021/12/17 04:22:39;;;;;;;28.27;13.13;;;;;;;;;;5018566;28;20072;-83
2021/12/17 04:25:05;;;;;;;29.50;13.50;;;;;;;;;;5013376;28;20052;-82
2021/12/17 04:27:31;;;;;;;29.08;12.10;;;;;;;;;;4999740;28;20341;-84
2021/12/17 04:29:58;;;;;;;28.83;11.45;;;;;;;;;;5013604;28;20128;-84
2021/12/17 04:32:24;;;;;;;29.75;12.15;;;;;;;;;;5010313;28;20560;-83
2021/12/17 04:34:50;;;;;;;23.90;10.18;;;;;;;;;;5012543;28;20049;-83
2021/12/17 04:37:16;;;;;;;27.70;11.25;;;;;;;;;;4994732;28;20076;-83
2021/12/17 04:39:42;;;;;;;22.92;10.75;;;;;;;;;;5016011;28;20056;-84
2021/12/17 04:42:31;;;;;;;26.65;10.40;;;;;;;;;;5007227;28;20120;-84
2021/12/17 04:44:58;;;;;;;25.88;10.57;;;;;;;;;;5017799;28;20044;-84
2021/12/17 04:58:23;;;;;;;21.63;9.40;;;;;;;;;;5014804;28;20219;-84
2021/12/17 05:00:49;;;;;;;25.63;10.25;;;;;;;;;;4981138;28;20061;-84
2021/12/17 05:03:15;;;;;;;29.27;9.65;;;;;;;;;;4973742;28;20058;-85
2021/12/17 05:05:41;;;;;;;15.93;7.70;;;;;;;;;;4984608;28;20103;-85
2021/12/17 05:08:12;;;;;;;24.17;9.18;;;;;;;;;;4995587;28;20607;-83
2021/12/17 05:18:43;;;;;;;23.80;9.88;;;;;;;;;;5001429;28;20468;-84
2021/12/17 05:21:09;;;;;;;38.90;11.25;;;;;;;;;;5016188;28;20049;-83
2021/12/17 05:23:39;;;;;;;29.83;10.85;;;;;;;;;;4991228;28;20476;-84
2021/12/17 05:26:11;;;;;;;28.67;10.48;;;;;;;;;;5001908;28;20103;-84
2021/12/17 05:28:38;;;;;;;26.63;10.98;;;;;;;;;;4986262;28;20045;-84
2021/12/17 05:31:24;;;;;;;28.05;10.98;;;;;;;;;;4980681;28;20069;-85
2021/12/17 05:37:15;;;;;;;22.90;9.35;;;;;;;;;;5009171;28;20061;-85
2021/12/17 05:39:47;;;;;;;20.25;9.43;;;;;;;;;;4989862;28;20056;-85
2021/12/17 05:42:13;;;;;;;26.23;10.52;;;;;;;;;;4982993;28;20391;-85
2021/12/17 05:44:42;;;;;;;21.27;9.63;;;;;;;;;;5018202;28;20059;-85
2021/12/17 05:47:08;;;;;;;;;;;;;;;;;;4978858;28;20084;-85
2021/12/17 05:49:35;;;;;;;26.55;9.30;;;;;;;;;;5007363;28;19921;-83
2021/12/17 05:52:01;;;;;;;20.65;9.55;;;;;;;;;;5007312;28;20041;-83
2021/12/17 05:54:30;;;;;;;18.77;9.32;;;;;;;;;;4997814;28;20503;-83
2021/12/17 05:56:56;;;;;;;28.88;9.80;;;;;;;;;;5007359;28;20033;-85
2021/12/17 05:59:22;;;;;;;18.38;8.35;;;;;;;;;;4986052;28;20152;-85
2021/12/17 06:01:49;;;;;;;17.80;9.30;;;;;;;;;;4989889;28;20127;-85
2021/12/17 06:04:26;;;;;;;21.92;9.45;;;;;;;;;;5004976;28;20045;-85
2021/12/17 06:07:01;;;;;;;24.40;9.65;;;;;;;;;;4965510;28;20050;-79
2021/12/17 06:09:28;;;;;;;17.65;8.25;;;;;;;;;;4952333;28;20143;-79
2021/12/17 06:11:56;;;;;;;17.08;8.63;;;;;;;;;;4967460;28;20109;-82
2021/12/17 06:14:26;;;;;;;29.00;9.52;;;;;;;;;;4965459;28;20060;-82
2021/12/17 06:16:52;;;;;;;25.83;9.40;;;;;;;;;;4982630;28;20052;-82
2021/12/17 06:19:19;;;;;;;16.92;8.48;;;;;;;;;;4962588;28;20076;-82
2021/12/17 06:21:47;;;;;;;23.08;8.80;;;;;;;;;;4979887;28;20069;-83
2021/12/17 06:24:14;;;;;;;18.50;8.43;;;;;;;;;;4959550;28;20137;-82
2021/12/17 06:26:41;;;;;;;19.90;8.45;;;;;;;;;;4994854;28;20421;-82
2021/12/17 06:29:08;;;;;;;20.88;8.85;;;;;;;;;;4963366;28;20358;-76
2021/12/17 06:31:41;;;;;;;18.45;8.80;;;;;;;;;;4960267;28;20054;-83
2021/12/17 06:34:08;;;;;;;28.77;10.23;;;;;;;;;;4974394;28;20167;-82
2021/12/17 06:36:34;;;;;;;19.42;8.60;;;;;;;;;;4989167;28;20500;-82
2021/12/17 06:39:00;;;;;;;17.98;8.60;;;;;;;;;;4962433;28;20046;-81
2021/12/17 06:41:26;;;;;;;24.92;9.70;;;;;;;;;;4954436;28;20065;-82
2021/12/17 06:43:55;;;;;;;26.73;9.32;;;;;;;;;;4982921;28;20120;-79
2021/12/17 06:48:55;;;;;;;20.77;10.52;;;;;;;;;;5011593;28;20037;-78
2021/12/17 06:55:01;;;;;;;21.30;9.93;;;;;;;;;;5008302;28;20088;-79
2021/12/17 07:11:17;;;;;;;25.98;11.55;;;;;;;;;;5014621;28;20499;-79
2021/12/17 07:21:58;;;;;;;20.83;11.32;;;;;;;;;;5009361;28;20128;-79
2021/12/17 07:34:31;;;;;;;21.30;11.35;;;;;;;;;;5014021;28;20112;-79
2021/12/17 07:38:37;;;;;;;24.05;11.60;;;;;;;;;;5001988;28;20049;-79
2021/12/17 07:39:52;;;;;;;28.88;12.35;;;;;;;;;;5000166;28;20061;-79
2021/12/17 07:45:18;;;;;;;24.80;11.77;;;;;;;;;;4996090;28;20045;-79
2021/12/17 07:47:44;;;;;;;27.60;12.57;;;;;;;;;;5009507;28;20140;-79
2021/12/17 07:50:10;;;;;;;28.65;13.00;;;;;;;;;;5007185;28;20060;-78
2021/12/17 07:52:37;;;;;;;28.08;13.10;;;;;;;;;;5010534;28;20356;-77
2021/12/17 07:58:30;;;;;;;22.67;12.30;;;;;;;;;;4971769;28;20151;-79
2021/12/17 08:00:56;;;;;;;27.88;13.15;;;;;;;;;;5020382;28;20077;-79
2021/12/17 08:03:22;;;;;;;26.52;13.15;;;;;;;;;;5006591;28;20484;-79
2021/12/17 08:05:49;;;;;;;23.88;13.10;;;;;;;;;;4976443;28;20133;-78
2021/12/17 08:08:15;;;;;;;21.65;11.90;;;;;;;;;;5003885;28;20045;-78
2021/12/17 08:10:41;;;;;;;29.20;13.20;;;;;;;;;;5010874;28;20476;-78
2021/12/17 08:13:13;;;;;;;26.98;12.63;;;;;;;;;;5005524;28;20511;-79
2021/12/17 08:15:47;;;;;;;29.75;14.02;;;;;;;;;;4974588;28;20504;-78
2021/12/17 08:18:31;;;;;;;30.20;14.25;;;;;;;;;;4978332;28;20132;-79
2021/12/17 08:26:26;;;;;;;23.63;12.80;;;;;;;;;;5012564;28;20137;-78
2021/12/17 08:31:28;;;;;;;26.15;13.00;;;;;;;;;;4993375;28;20053;-83
2021/12/17 08:33:55;;;;;;;31.65;14.30;;;;;;;;;;4994846;28;20045;-84
2021/12/17 08:36:21;;;;;;;35.03;14.68;;;;;;;;;;4976280;28;20037;-82
2021/12/17 08:38:49;;;;;;;28.77;14.02;;;;;;;;;;5022297;28;20049;-83
2021/12/17 08:41:15;;;;;;;26.90;14.60;;;;;;;;;;4986040;28;20072;-83
2021/12/17 08:43:41;;;;;;;25.92;14.15;;;;;;;;;;5010521;28;20053;-78
2021/12/17 08:46:08;;;;;;;25.25;13.60;;;;;;;;;;4986483;28;20057;-78
2021/12/17 08:48:34;;;;;;;31.70;15.48;;;;;;;;;;5003789;28;20405;-78
2021/12/17 08:51:00;;;;;;;35.80;16.48;;;;;;;;;;5009854;28;20037;-78
2021/12/17 08:53:26;;;;;;;35.28;15.73;;;;;;;;;;4989862;28;20049;-82
2021/12/17 08:55:52;;;;;;;33.08;15.85;;;;;;;;;;5005610;28;20048;-82
2021/12/17 08:58:18;;;;;;;36.13;15.20;;;;;;;;;;5014812;28;20049;-83
2021/12/17 09:00:45;;;;;;;29.13;14.35;;;;;;;;;;4988395;28;20119;-82
2021/12/17 09:03:11;;;;;;;35.63;15.82;;;;;;;;;;5001402;28;20522;-82
2021/12/17 09:05:38;;;;;;;29.98;15.23;;;;;;;;;;5026689;28;20097;-82
2021/12/17 09:08:07;;;;;;;26.05;14.70;;;;;;;;;;5020615;28;20064;-82
2021/12/17 09:10:33;;;;;;;30.17;14.55;;;;;;;;;;5004694;28;20066;-82
2021/12/17 09:12:59;;;;;;;28.67;14.85;;;;;;;;;;5004584;28;20045;-82
2021/12/17 09:15:25;;;;;;;32.30;15.55;;;;;;;;;;4985666;28;20111;-82
2021/12/17 09:17:51;;;;;;;32.90;16.58;;;;;;;;;;5013136;28;20052;-82
2021/12/17 09:20:17;;;;;;;27.85;15.02;;;;;;;;;;5018339;28;20443;-81
2021/12/17 09:22:44;;;;;;;29.83;15.35;;;;;;;;;;5024005;28;20089;-82
2021/12/17 09:25:10;;;;;;;33.95;16.38;;;;;;;;;;5036101;28;20060;-82
2021/12/17 09:27:41;;;;;;;28.05;14.95;;;;;;;;;;5006728;28;20041;-81
2021/12/17 09:30:08;;;;;;;29.88;16.05;;;;;;;;;;4999983;28;20037;-82
2021/12/17 09:32:35;;;;;;;28.17;16.13;;;;;;;;;;5000846;28;20052;-82
2021/12/17 09:35:01;;;;;;;31.35;15.68;;;;;;;;;;5021243;28;20056;-82
2021/12/17 09:40:46;;;;;;;32.78;16.98;;;;;;;;;;5023535;28;20060;-82
2021/12/17 09:43:14;;;;;;;33.75;17.20;;;;;;;;;;5005597;28;20116;-83
2021/12/17 09:45:40;;;;;;;31.98;16.85;;;;;;;;;;5020673;28;20106;-82
2021/12/17 09:48:06;;;;;;;30.23;15.25;;;;;;;;;;5019697;28;20077;-83
2021/12/17 09:50:33;;;;;;;26.70;15.63;;;;;;;;;;5010747;28;20498;-82
2021/12/17 09:52:59;;;;;;;27.45;15.43;;;;;;;;;;5007696;28;20112;-83
2021/12/17 09:55:25;;;;;;;36.03;16.15;;;;;;;;;;4996194;28;20140;-84
2021/12/17 09:57:51;;;;;;;24.55;14.13;;;;;;;;;;5009101;28;20053;-84
2021/12/17 10:00:22;;;;;;;26.20;15.38;;;;;;;;;;4992201;28;20052;-84
2021/12/17 10:02:48;;;;;;;29.23;14.63;;;;;;;;;;4997931;28;20132;-84
2021/12/17 10:05:17;;;;;;;22.30;14.68;;;;;;;;;;5011027;28;20046;-84
2021/12/17 10:07:44;;;;;;;25.35;13.40;;;;;;;;;;5012238;28;20042;-84
2021/12/17 10:10:10;;;;;;;24.92;13.63;;;;;;;;;;4982623;28;20046;-84
2021/12/17 10:12:38;;;;;;;24.63;13.63;;;;;;;;;;5016745;28;20084;-83
2021/12/17 10:15:06;;;;;;;;;;;;;;;;;;5012507;28;20103;-84
2021/12/17 10:17:33;;;;;;;24.80;14.45;;;;;;;;;;5009088;28;19921;-83
2021/12/17 10:19:59;;;;;;;25.02;13.93;;;;;;;;;;5003129;28;20038;-83
2021/12/17 10:22:25;;;;;;;30.25;15.40;;;;;;;;;;4998294;28;23036;-83
2021/12/17 10:25:11;;;;;;;26.38;14.77;;;;;;;;;;4986428;28;20127;-85
2021/12/17 10:27:38;;;;;;;31.40;14.77;;;;;;;;;;5017730;28;20049;-84
2021/12/17 10:30:18;;;;;;;25.33;13.73;;;;;;;;;;5012223;28;20053;-84
2021/12/17 10:32:45;;;;;;;29.60;14.88;;;;;;;;;;4999543;28;20057;-84
2021/12/17 10:35:13;;;;;;;27.63;13.88;;;;;;;;;;4986302;28;20405;-83
2021/12/17 10:37:43;;;;;;;26.17;14.80;;;;;;;;;;4997084;28;20119;-83
2021/12/17 10:40:17;;;;;;;23.25;14.15;;;;;;;;;;4980927;28;20050;-84
2021/12/17 10:42:58;;;;;;;27.60;15.05;;;;;;;;;;4999019;28;20037;-84
2021/12/17 10:45:26;;;;;;;22.90;13.52;;;;;;;;;;4995805;28;20045;-84
2021/12/17 10:48:22;;;;;;;27.02;15.18;;;;;;;;;;5018164;28;20037;-83
2021/12/17 10:50:49;;;;;;;28.63;15.20;;;;;;;;;;5016384;28;20048;-84
2021/12/17 10:53:15;;;;;;;25.67;15.27;;;;;;;;;;4993846;28;20564;-82
2021/12/17 10:55:44;;;;;;;25.20;14.20;;;;;;;;;;5016375;28;20041;-81
2021/12/17 10:58:14;;;;;;;30.90;15.20;;;;;;;;;;4998357;28;20048;-82
2021/12/17 11:00:51;;;;;;;31.38;14.98;;;;;;;;;;4991746;28;20049;-82
2021/12/17 11:03:17;;;;;;;23.30;13.57;;;;;;;;;;5016042;28;20045;-83
2021/12/17 11:06:12;;;;;;;27.73;14.75;;;;;;;;;;5019138;28;20499;-80
2021/12/17 11:08:39;;;;;;;27.42;13.48;;;;;;;;;;5021031;28;20106;-82
2021/12/17 11:11:27;;;;;;;23.42;13.32;;;;;;;;;;5023703;28;20064;-82
2021/12/17 11:14:06;;;;;;;25.42;14.02;;;;;;;;;;5015112;28;20116;-83
2021/12/17 11:16:34;;;;;;;22.45;13.98;;;;;;;;;;4996359;28;20118;-85
2021/12/17 11:21:55;;;;;;;27.70;15.20;;;;;;;;;;5005376;28;20055;-84
2021/12/17 11:24:22;;;;;;;25.95;14.52;;;;;;;;;;5002445;28;20037;-84
2021/12/17 11:26:48;;;;;;;23.23;14.43;;;;;;;;;;5017234;28;20045;-84
2021/12/17 11:29:16;;;;;;;29.33;14.73;;;;;;;;;;4996117;28;20183;-83
2021/12/17 11:31:42;;;;;;;24.83;13.90;;;;;;;;;;4999039;28;21058;-83
2021/12/17 11:34:12;;;;;;;28.65;15.02;;;;;;;;;;5010427;28;20041;-83
2021/12/17 11:36:38;;;;;;;20.48;13.13;;;;;;;;;;4986826;28;20053;-83
2021/12/17 11:39:12;;;;;;;28.20;14.40;;;;;;;;;;5005043;28;20053;-85
2021/12/17 11:41:51;;;;;;;26.23;13.30;;;;;;;;;;5001139;28;20064;-85
2021/12/17 11:44:41;;;;;;;23.90;14.55;;;;;;;;;;5002878;28;20056;-85
2021/12/17 11:47:10;;;;;;;27.25;14.80;;;;;;;;;;4995909;28;20048;-83
2021/12/17 11:49:54;;;;;;;25.85;14.50;;;;;;;;;;5016359;28;20523;-85
2021/12/17 11:52:35;;;;;;;28.00;13.35;;;;;;;;;;4985589;28;20048;-84
2021/12/17 11:55:20;;;;;;;17.88;11.32;;;;;;;;;;5021294;28;20187;-82
2021/12/17 11:57:46;;;;;;;22.67;12.95;;;;;;;;;;5000823;28;20594;-82
2021/12/17 12:00:16;;;;;;;29.25;13.93;;;;;;;;;;5010553;28;20389;-82
2021/12/17 12:02:49;;;;;;;21.98;12.75;;;;;;;;;;5002934;28;20523;-86
2021/12/17 12:05:35;;;;;;;18.92;12.02;;;;;;;;;;4997147;28;20064;-84
2021/12/17 12:08:20;;;;;;;20.70;11.98;;;;;;;;;;5003991;28;20319;-84
2021/12/17 12:10:48;;;;;;;21.25;11.30;;;;;;;;;;4999338;28;20053;-84
2021/12/17 12:16:06;;;;;;;16.38;10.75;;;;;;;;;;5013304;28;20061;-83
2021/12/17 12:18:39;;;;;;;20.23;11.50;;;;;;;;;;4997544;28;20095;-84
2021/12/17 12:21:05;;;;;;;16.52;10.55;;;;;;;;;;5000086;28;20052;-84
2021/12/17 12:23:36;;;;;;;18.30;11.18;;;;;;;;;;4997554;28;20111;-81
2021/12/17 12:26:03;;;;;;;16.67;10.68;;;;;;;;;;5011992;28;20056;-81
2021/12/17 12:29:17;;;;;;;;;;;;;;;;;;;;;
2021/12/17 12:31:47;;;;;;;16.98;10.32;;;;;;;;;;5020323;28;20060;-82
2021/12/17 12:34:13;;;;;;;;;;;;;;;;;;4995594;28;20106;-82
2021/12/17 12:36:49;;;;;;;13.30;7.70;;;;;;;;;;5035078;28;19916;-82
2021/12/17 12:39:25;;;;;;;11.82;7.45;;;;;;;;;;5015700;28;20053;-82
2021/12/17 12:42:10;;;;;;;12.48;7.25;;;;;;;;;;5016042;28;20043;-83
2021/12/17 12:44:42;;;;;;;10.55;6.90;;;;;;;;;;5015667;28;20051;-82
2021/12/17 12:47:11;;;;;;;8.95;6.47;;;;;;;;;;5011310;28;20480;-84
2021/12/17 12:49:47;;;;;;;10.00;6.15;;;;;;;;;;5008303;28;20045;-84
2021/12/17 12:52:16;;;;;;;10.43;5.45;;;;;;;;;;4986315;28;20502;-84
2021/12/17 12:54:43;;;;;;;7.13;5.43;;;;;;;;;;5029029;28;20092;-84
2021/12/17 12:57:09;;;;;;;7.72;5.45;;;;;;;;;;5009868;28;20072;-84
2021/12/17 12:59:35;;;;;;;9.13;4.80;;;;;;;;;;4995109;28;20499;-84
2021/12/17 13:02:01;;;;;;;8.52;5.18;;;;;;;;;;4993338;28;20131;-85
2021/12/17 13:04:31;;;;;;;8.18;5.20;;;;;;;;;;4990144;28;20098;-84
2021/12/17 13:06:57;;;;;;;8.55;5.07;;;;;;;;;;5012419;28;20099;-84
2021/12/17 13:09:29;;;;;;;7.20;4.95;;;;;;;;;;5005154;28;23856;-84
2021/12/17 13:12:16;;;;;;;6.35;4.13;;;;;;;;;;4993933;28;20045;-84
2021/12/17 13:14:44;;;;;;;6.03;4.00;;;;;;;;;;5004274;28;20045;-84
2021/12/17 13:17:39;;;;;;;9.90;4.65;;;;;;;;;;5006386;28;20041;-83
2021/12/17 13:22:55;;;;;;;7.40;4.28;;;;;;;;;;5027682;28;20487;-82
2021/12/17 13:25:28;;;;;;;8.00;4.40;;;;;;;;;;5017738;28;20150;-83
2021/12/17 13:27:54;;;;;;;9.25;4.97;;;;;;;;;;5022663;28;20056;-83
2021/12/17 13:30:27;;;;;;;8.73;4.80;;;;;;;;;;4986681;28;20480;-83
2021/12/17 13:32:53;;;;;;;7.28;5.30;;;;;;;;;;5005209;28;20041;-83
2021/12/17 13:35:21;;;;;;;7.45;5.07;;;;;;;;;;4984229;28;20507;-83
2021/12/17 13:37:47;;;;;;;6.78;5.00;;;;;;;;;;5005544;28;20081;-83
2021/12/17 13:40:14;;;;;;;8.48;5.60;;;;;;;;;;4987477;28;20146;-83
2021/12/17 13:42:42;;;;;;;6.63;4.72;;;;;;;;;;5010810;28;20595;-83
2021/12/17 13:45:13;;;;;;;9.07;5.30;;;;;;;;;;5023264;28;20052;-83
2021/12/17 13:47:42;;;;;;;7.88;5.45;;;;;;;;;;5007983;28;20040;-83
2021/12/17 13:50:15;;;;;;;7.10;4.97;;;;;;;;;;5010379;28;20124;-84
2021/12/17 13:53:06;;;;;;;9.60;5.32;;;;;;;;;;5020721;28;20049;-84
2021/12/17 13:55:33;;;;;;;8.00;5.57;;;;;;;;;;5028415;28;20056;-84
2021/12/17 13:57:59;;;;;;;7.97;5.03;;;;;;;;;;5013291;28;20460;-83
2021/12/17 14:00:26;;;;;;;8.00;4.53;;;;;;;;;;5006608;28;20116;-83
2021/12/17 14:02:54;;;;;;;7.37;4.30;;;;;;;;;;4989488;28;20067;-83
2021/12/17 14:05:25;;;;;;;9.68;4.50;;;;;;;;;;5028574;28;20536;-83
2021/12/17 14:07:51;;;;;;;5.68;4.18;;;;;;;;;;5025997;28;20086;-84
2021/12/17 14:10:21;;;;;;;8.23;3.95;;;;;;;;;;5019779;28;20094;-84
2021/12/17 14:12:47;;;;;;;4.75;3.63;;;;;;;;;;5029278;28;20037;-84
2021/12/17 14:15:16;;;;;;;5.55;3.80;;;;;;;;;;5021109;28;20091;-84
2021/12/17 14:17:46;;;;;;;6.18;3.72;;;;;;;;;;5014329;28;20371;-83
2021/12/17 14:20:16;;;;;;;5.10;3.60;;;;;;;;;;5042680;28;20082;-83
2021/12/17 14:22:43;;;;;;;4.90;3.30;;;;;;;;;;5012109;28;20041;-83
2021/12/17 14:28:40;;;;;;;4.50;3.72;;;;;;;;;;4968811;28;20076;-83
2021/12/17 14:31:59;;;;;;;6.05;3.72;;;;;;;;;;4991708;28;20049;-83
2021/12/17 14:34:26;;;;;;;6.40;4.35;;;;;;;;;;4944781;28;20039;-82
2021/12/17 14:37:00;;;;;;;6.10;3.97;;;;;;;;;;5022935;28;20067;-81
2021/12/17 14:39:34;;;;;;;5.82;4.18;;;;;;;;;;5015553;28;20041;-82
2021/12/17 14:42:03;;;;;;;5.97;4.32;;;;;;;;;;4996764;28;20488;-83
2021/12/17 14:44:50;;;;;;;6.22;4.28;;;;;;;;;;5008701;28;20102;-82
2021/12/17 14:47:26;;;;;;;5.93;3.97;;;;;;;;;;4995509;28;20478;-83
2021/12/17 15:01:17;;;;;;;7.50;5.40;;;;;;;;;;5039937;28;20041;-83
2021/12/17 15:03:43;;;;;;;7.78;5.63;;;;;;;;;;5025653;28;20049;-83
2021/12/17 15:06:13;;;;;;;6.90;5.70;;;;;;;;;;4993945;28;20147;-82
2021/12/17 15:08:39;;;;;;;8.85;6.22;;;;;;;;;;5035471;28;20392;-83
2021/12/17 15:11:13;;;;;;;9.77;5.68;;;;;;;;;;5004454;28;20118;-83
2021/12/17 15:13:39;;;;;;;7.65;5.60;;;;;;;;;;5015839;28;20033;-81
2021/12/17 15:16:06;;;;;;;8.48;6.40;;;;;;;;;;5013744;28;20110;-82
2021/12/17 15:18:33;;;;;;;7.73;6.23;;;;;;;;;;4997264;28;20119;-81
2021/12/17 15:20:59;;;;;;;10.38;6.72;;;;;;;;;;5012940;28;20423;-81
2021/12/17 15:23:25;;;;;;;9.13;6.60;;;;;;;;;;4994339;28;20037;-81
2021/12/17 15:25:52;;;;;;;8.95;6.28;;;;;;;;;;5013130;28;20057;-81
2021/12/17 15:28:20;;;;;;;13.32;6.65;;;;;;;;;;5034984;28;20071;-81
2021/12/17 15:30:46;;;;;;;9.05;6.40;;;;;;;;;;5019760;28;20041;-81
2021/12/17 15:33:15;;;;;;;7.20;6.38;;;;;;;;;;4996543;28;20052;-81
2021/12/17 15:35:42;;;;;;;9.20;7.22;;;;;;;;;;5028052;28;20045;-81
2021/12/17 15:38:09;;;;;;;10.40;7.38;;;;;;;;;;4995403;28;20352;-80
2021/12/17 15:40:36;;;;;;;8.88;6.60;;;;;;;;;;5020265;28;20507;-81
2021/12/17 15:43:02;;;;;;;9.52;6.53;;;;;;;;;;5021393;28;20094;-81
2021/12/17 15:45:37;;;;;;;8.60;6.68;;;;;;;;;;5013091;28;21161;-81
2021/12/17 15:48:13;;;;;;;;;;;;;;;;;;;;;
2021/12/17 15:50:39;;;;;;;7.75;5.88;;;;;;;;;;4987808;28;20049;-81
2021/12/17 15:53:09;;;;;;;7.82;6.22;;;;;;;;;;4991935;28;20087;-81
2021/12/17 15:55:36;;;;;;;10.52;6.45;;;;;;;;;;5018229;28;20700;-83
2021/12/17 15:58:02;;;;;;;10.52;6.63;;;;;;;;;;4983232;28;20051;-82
2021/12/17 16:00:32;;;;;;;9.88;6.95;;;;;;;;;;4996973;28;20029;-81
2021/12/17 16:02:58;;;;;;;8.88;6.75;;;;;;;;;;4995409;28;20048;-79
2021/12/17 16:05:25;;;;;;;8.40;6.28;;;;;;;;;;4998771;28;20072;-88
2021/12/17 16:07:53;;;;;;;9.52;6.68;;;;;;;;;;5012428;28;21082;-85
2021/12/17 16:11:11;;;;;;;9.05;6.53;;;;;;;;;;5008373;28;20127;-84
2021/12/17 16:30:56;;;;;;;38.58;31.98;;;;;;;;;;5015634;23;19933;-84
2021/12/17 16:33:36;;;;;;;15.85;13.05;;;;;;;;;;4889773;29;20051;-85
2021/12/17 16:36:02;;;;;;;26.20;23.40;;;;;;;;;;4878811;29;20122;-85
2021/12/17 16:41:59;;;;;;;;;;;;;;;;;;;;;
2021/12/17 16:47:26;;;;;;;16.83;13.23;;;;;;;;;;4829588;29;20504;-83
2021/12/17 16:49:53;;;;;;;11.68;9.43;;;;;;;;;;4836191;29;20045;-83
2021/12/17 16:52:19;;;;;;;13.85;11.45;;;;;;;;;;4812554;29;20280;-83
2021/12/17 16:54:45;;;;;;;20.65;18.13;;;;;;;;;;4841058;29;20056;-84
2021/12/17 16:57:29;;;;;;;15.48;13.77;;;;;;;;;;4848234;29;20049;-84
2021/12/17 17:00:01;;;;;;;16.30;12.73;;;;;;;;;;4836033;29;20045;-82
2021/12/17 17:02:27;;;;;;;14.15;11.80;;;;;;;;;;4824140;29;20040;-81
2021/12/17 17:04:59;;;;;;;18.35;11.10;;;;;;;;;;4864533;29;20152;-83
2021/12/17 17:07:28;;;;;;;13.10;9.73;;;;;;;;;;4873087;29;20582;-83
2021/12/17 17:09:57;;;;;;;15.55;11.55;;;;;;;;;;4859595;29;20037;-84
2021/12/17 17:12:34;;;;;;;18.05;11.88;;;;;;;;;;4891143;29;20048;-84
2021/12/17 17:15:09;;;;;;;13.48;10.57;;;;;;;;;;4904936;29;20055;-84
2021/12/17 17:17:47;;;;;;;15.57;11.32;;;;;;;;;;4895215;29;20048;-84
2021/12/17 17:20:13;;;;;;;14.85;10.95;;;;;;;;;;4862261;29;20573;-83
2021/12/17 17:22:55;;;;;;;16.13;11.50;;;;;;;;;;4879703;29;20087;-83
2021/12/17 17:25:30;;;;;;;14.38;11.02;;;;;;;;;;4882046;29;20048;-82
2021/12/17 17:27:57;;;;;;;17.63;11.52;;;;;;;;;;4864347;29;20372;-83
2021/12/17 17:30:23;;;;;;;16.95;11.85;;;;;;;;;;4859493;29;20568;-83
2021/12/17 17:33:13;;;;;;;16.67;12.48;;;;;;;;;;4876862;29;20462;-84
2021/12/17 17:35:39;;;;;;;18.92;13.00;;;;;;;;;;4861903;29;20353;-85
2021/12/17 17:38:16;;;;;;;24.52;19.27;;;;;;;;;;4873884;29;20055;-83
2021/12/17 17:40:57;;;;;;;57.53;47.15;;;;;;;;;;4886140;29;20039;-82
2021/12/17 17:43:23;;;;;;;27.85;21.23;;;;;;;;;;4883108;29;20436;-83
2021/12/17 17:45:50;;;;;;;16.55;12.30;;;;;;;;;;4876313;29;20048;-82
2021/12/17 17:48:16;;;;;;;17.75;14.15;;;;;;;;;;4887306;29;20103;-83
2021/12/17 17:50:42;;;;;;;11.80;10.23;;;;;;;;;;4874410;29;20079;-82
2021/12/17 17:53:09;;;;;;;10.02;7.82;;;;;;;;;;4882836;29;20182;-82
2021/12/17 17:55:37;;;;;;;9.32;8.38;;;;;;;;;;4871514;29;20438;-81
2021/12/17 17:58:03;;;;;;;6.97;5.63;;;;;;;;;;4861417;29;20055;-82
2021/12/17 18:00:31;;;;;;;6.07;4.65;;;;;;;;;;4886914;29;20174;-83
2021/12/17 18:02:57;;;;;;;5.25;4.45;;;;;;;;;;4856103;29;20123;-83
2021/12/17 18:05:24;;;;;;;5.50;4.20;;;;;;;;;;4869802;29;21216;-84
2021/12/17 18:07:51;;;;;;;6.15;3.60;;;;;;;;;;4871069;29;20048;-82
2021/12/17 18:10:17;;;;;;;4.00;3.50;;;;;;;;;;4885683;29;20152;-82
2021/12/17 18:12:44;;;;;;;3.75;3.25;;;;;;;;;;4877227;29;20047;-82
2021/12/17 18:15:10;;;;;;;3.55;3.17;;;;;;;;;;4873956;29;20044;-84
2021/12/17 18:17:36;;;;;;;4.57;3.45;;;;;;;;;;4890745;29;20075;-85
2021/12/17 18:20:03;;;;;;;5.55;3.50;;;;;;;;;;4895021;29;20108;-83
2021/12/17 18:22:29;;;;;;;4.18;3.60;;;;;;;;;;4900959;29;20050;-83
2021/12/17 18:24:55;;;;;;;3.78;3.15;;;;;;;;;;4862115;29;20146;-84
2021/12/17 18:27:24;;;;;;;3.65;3.08;;;;;;;;;;4856805;29;20138;-80
2021/12/17 18:29:51;;;;;;;3.58;3.17;;;;;;;;;;4892467;29;20048;-83
2021/12/17 18:32:17;;;;;;;5.32;3.15;;;;;;;;;;4889929;29;20496;-83
2021/12/17 18:34:43;;;;;;;3.72;3.17;;;;;;;;;;4905725;29;20393;-83
2021/12/17 18:37:09;;;;;;;4.50;3.00;;;;;;;;;;4857933;29;20056;-83
2021/12/17 18:39:40;;;;;;;4.63;3.33;;;;;;;;;;4873804;29;20099;-84
2021/12/17 18:44:52;;;;;;;3.60;2.92;;;;;;;;;;4876639;29;20051;-83
2021/12/17 18:47:18;;;;;;;3.15;2.60;;;;;;;;;;4872106;29;20055;-84
2021/12/17 18:49:48;;;;;;;4.88;2.38;;;;;;;;;;4872015;29;20163;-83
2021/12/17 18:52:14;;;;;;;3.00;2.70;;;;;;;;;;4873448;29;20044;-83
2021/12/17 18:54:41;;;;;;;5.28;4.50;;;;;;;;;;4871581;29;20062;-83
2021/12/17 18:57:07;;;;;;;14.63;13.10;;;;;;;;;;4874106;29;20103;-85
2021/12/17 18:59:33;;;;;;;12.30;10.60;;;;;;;;;;4859142;29;20372;-83
2021/12/17 19:01:59;;;;;;;32.03;28.92;;;;;;;;;;4876066;29;20055;-83
2021/12/17 19:04:38;;;;;;;7.32;6.63;;;;;;;;;;4882330;29;20052;-84
2021/12/17 19:09:59;;;;;;;5.30;4.80;;;;;;;;;;4879036;29;20440;-83
2021/12/17 19:12:25;;;;;;;5.53;5.03;;;;;;;;;;4874589;29;20058;-83
2021/12/17 19:14:51;;;;;;;3.88;3.47;;;;;;;;;;4866085;29;20055;-83
2021/12/17 19:17:19;;;;;;;3.83;3.42;;;;;;;;;;4888489;29;20044;-84
2021/12/17 19:19:58;;;;;;;4.38;3.80;;;;;;;;;;4892130;29;20399;-84
2021/12/17 19:22:31;;;;;;;2.95;2.72;;;;;;;;;;4889534;29;21358;-82
2021/12/17 19:25:05;;;;;;;3.83;2.92;;;;;;;;;;4890938;29;20067;-81
2021/12/17 19:27:37;;;;;;;3.43;2.70;;;;;;;;;;4876326;29;20440;-81
2021/12/17 19:30:04;;;;;;;2.75;2.33;;;;;;;;;;4876379;29;20456;-82
2021/12/17 19:32:30;;;;;;;2.75;2.28;;;;;;;;;;4877732;29;20111;-82
2021/12/17 19:34:56;;;;;;;2.63;2.40;;;;;;;;;;4901294;29;20044;-84
2021/12/17 19:37:23;;;;;;;3.38;3.08;;;;;;;;;;4875752;29;20708;-85
2021/12/17 19:39:51;;;;;;;3.63;2.60;;;;;;;;;;4896837;29;20146;-83
2021/12/17 19:42:17;;;;;;;4.75;3.25;;;;;;;;;;4877687;29;20043;-84
2021/12/17 19:44:44;;;;;;;3.75;2.92;;;;;;;;;;4865900;29;20079;-82
2021/12/17 19:52:06;;;;;;;5.13;3.47;;;;;;;;;;4869207;29;20055;-85
2021/12/17 19:54:33;;;;;;;4.63;2.90;;;;;;;;;;4872946;29;20124;-84
2021/12/17 19:56:59;;;;;;;4.07;3.30;;;;;;;;;;4881658;29;20047;-84
2021/12/17 19:59:25;;;;;;;5.13;3.75;;;;;;;;;;4886423;29;20044;-84
2021/12/17 20:01:54;;;;;;;5.97;4.00;;;;;;;;;;4894796;29;20040;-83
2021/12/17 20:04:20;;;;;;;;;;;;;;;;;;4887683;29;20123;-85